createdAt,value
2018-09-09T00:02:11.370Z,8.30
2018-09-09T00:04:40.162Z,9.27
2018-09-09T00:07:08.769Z,10.27
2018-09-09T00:09:42.486Z,11.70
2018-09-09T00:12:11.086Z,11.13
2018-09-09T00:14:39.739Z,12.37
2018-09-09T00:17:08.625Z,12.17
2018-09-09T00:19:37.285Z,11.53
2018-09-09T00:22:06.092Z,10.70
2018-09-09T00:24:35.858Z,10.63
2018-09-09T00:27:04.861Z,10.73
2018-09-09T00:29:33.630Z,10.57
2018-09-09T00:32:02.512Z,10.73
2018-09-09T00:34:31.105Z,10.73
2018-09-09T00:36:59.899Z,11.10
2018-09-09T00:39:28.742Z,11.20
2018-09-09T00:41:57.486Z,13.00
2018-09-09T00:44:26.174Z,13.57
2018-09-09T00:46:54.791Z,10.83
2018-09-09T00:49:28.571Z,11.80
2018-09-09T00:52:02.437Z,11.20
2018-09-09T00:54:31.113Z,11.57
2018-09-09T00:56:59.909Z,11.23
2018-09-09T00:59:28.731Z,12.50
2018-09-09T01:01:57.457Z,12.77
2018-09-09T01:04:26.123Z,12.10
2018-09-09T01:06:54.844Z,11.40
2018-09-09T01:09:27.788Z,11.87
2018-09-09T01:11:57.521Z,12.43
2018-09-09T01:14:28.169Z,10.50
2018-09-09T01:16:56.986Z,10.73
2018-09-09T01:19:25.723Z,10.20
2018-09-09T01:21:54.632Z,10.63
2018-09-09T01:24:23.980Z,10.13
2018-09-09T01:26:52.837Z,10.50
2018-09-09T01:29:21.631Z,12.43
2018-09-09T01:31:50.326Z,12.23
2018-09-09T01:34:19.011Z,12.23
2018-09-09T01:36:48.063Z,11.10
2018-09-09T01:39:16.815Z,11.00
2018-09-09T01:41:45.450Z,11.67
2018-09-09T01:44:14.082Z,10.93
2018-09-09T01:46:42.757Z,10.93
2018-09-09T01:49:11.450Z,11.73
2018-09-09T01:51:40.850Z,12.13
2018-09-09T01:54:09.586Z,11.57
2018-09-09T01:56:39.270Z,11.83
2018-09-09T01:59:07.970Z,11.23
2018-09-09T02:01:36.651Z,11.37
2018-09-09T02:04:05.283Z,11.10
2018-09-09T02:06:33.929Z,11.27
2018-09-09T02:09:02.689Z,10.87
2018-09-09T02:11:31.357Z,11.03
2018-09-09T02:14:00.357Z,11.73
2018-09-09T02:16:29.085Z,12.90
2018-09-09T02:18:57.787Z,12.43
2018-09-09T02:21:26.401Z,12.60
2018-09-09T02:23:55.024Z,12.27
2018-09-09T02:26:23.732Z,11.37
2018-09-09T02:28:53.020Z,11.50
2018-09-09T02:31:21.769Z,11.37
2018-09-09T02:33:50.378Z,10.60
2018-09-09T02:36:19.128Z,11.03
2018-09-09T02:38:47.900Z,10.43
2018-09-09T02:41:16.630Z,11.03
2018-09-09T02:43:45.414Z,10.33
2018-09-09T02:46:13.974Z,10.20
2018-09-09T02:48:42.688Z,10.57
2018-09-09T02:51:11.334Z,10.60
2018-09-09T02:53:40.109Z,10.70
2018-09-09T02:56:09.877Z,10.10
2018-09-09T02:58:38.669Z,8.63
2018-09-09T03:01:07.846Z,9.50
2018-09-09T03:03:37.493Z,9.50
2018-09-09T03:06:06.816Z,8.97
2018-09-09T03:08:35.491Z,8.87
2018-09-09T03:11:09.330Z,8.57
2018-09-09T03:13:38.027Z,8.53
2018-09-09T03:16:07.047Z,9.23
2018-09-09T03:18:35.762Z,9.00
2018-09-09T03:21:04.485Z,9.33
2018-09-09T03:23:34.314Z,11.00
2018-09-09T03:26:03.674Z,12.53
2018-09-09T03:28:33.148Z,12.40
2018-09-09T03:31:02.962Z,12.67
2018-09-09T03:33:31.665Z,11.93
2018-09-09T03:36:00.406Z,11.60
2018-09-09T03:38:29.320Z,11.63
2018-09-09T03:40:58.066Z,11.50
2018-09-09T03:43:26.703Z,10.17
2018-09-09T03:45:55.598Z,10.10
2018-09-09T03:48:24.466Z,10.00
2018-09-09T03:50:53.247Z,10.30
2018-09-09T03:53:21.881Z,8.80
2018-09-09T03:55:50.558Z,9.13
2018-09-09T03:58:19.663Z,8.80
2018-09-09T04:00:48.455Z,10.20
2018-09-09T04:03:17.403Z,11.03
2018-09-09T04:05:46.234Z,10.43
2018-09-09T04:08:15.740Z,10.37
2018-09-09T04:10:45.609Z,11.67
2018-09-09T04:13:14.983Z,10.47
2018-09-09T04:15:44.283Z,9.67
2018-09-09T04:18:14.499Z,9.23
2018-09-09T04:20:43.814Z,9.17
2018-09-09T04:23:13.494Z,9.00
2018-09-09T04:25:42.169Z,9.50
2018-09-09T04:28:11.013Z,9.07
2018-09-09T04:30:39.698Z,9.57
2018-09-09T04:33:08.377Z,9.77
2018-09-09T04:35:37.170Z,10.00
2018-09-09T04:38:05.829Z,10.70
2018-09-09T04:40:34.462Z,10.93
2018-09-09T04:43:03.837Z,10.07
2018-09-09T04:45:32.458Z,9.97
2018-09-09T04:48:02.068Z,10.60
2018-09-09T04:50:31.356Z,10.53
2018-09-09T04:53:00.017Z,10.83
2018-09-09T04:55:28.736Z,11.33
2018-09-09T04:57:57.450Z,10.57
2018-09-09T05:00:27.361Z,10.67
2018-09-09T05:02:56.715Z,10.30
2018-09-09T05:05:25.357Z,9.63
2018-09-09T05:07:56.797Z,11.03
2018-09-09T05:10:25.755Z,11.43
2018-09-09T05:12:55.468Z,10.13
2018-09-09T05:15:24.301Z,10.63
2018-09-09T05:17:52.934Z,10.73
2018-09-09T05:20:22.033Z,11.57
2018-09-09T05:22:50.762Z,11.63
2018-09-09T05:25:19.472Z,11.17
2018-09-09T05:27:48.107Z,12.00
2018-09-09T05:30:17.035Z,13.70
2018-09-09T05:32:46.473Z,15.83
2018-09-09T05:35:21.743Z,16.43
2018-09-09T05:37:52.094Z,15.70
2018-09-09T05:40:21.627Z,14.97
2018-09-09T05:42:50.329Z,13.63
2018-09-09T05:45:18.987Z,13.60
2018-09-09T05:47:48.726Z,13.20
2018-09-09T05:50:17.425Z,11.77
2018-09-09T05:52:46.111Z,11.13
2018-09-09T05:55:15.428Z,11.67
2018-09-09T05:57:44.228Z,12.03
2018-09-09T06:00:14.022Z,13.07
2018-09-09T06:02:42.729Z,12.63
2018-09-09T06:05:11.424Z,12.93
2018-09-09T06:07:40.409Z,13.00
2018-09-09T06:10:09.065Z,12.90
2018-09-09T06:12:37.874Z,12.13
2018-09-09T06:15:07.690Z,13.87
2018-09-09T06:17:37.185Z,13.70
2018-09-09T06:20:06.045Z,13.97
2018-09-09T06:22:34.919Z,16.17
2018-09-09T06:25:03.547Z,15.93
2018-09-09T06:27:32.301Z,17.23
2018-09-09T06:30:00.886Z,16.83
2018-09-09T06:32:29.814Z,17.73
2018-09-09T06:34:58.541Z,16.93
2018-09-09T06:37:27.357Z,17.60
2018-09-09T06:39:55.985Z,17.80
2018-09-09T06:42:24.723Z,16.27
2018-09-09T06:44:53.617Z,16.47
2018-09-09T06:47:22.302Z,16.20
2018-09-09T06:49:51.894Z,16.63
2018-09-09T06:52:22.330Z,16.43
2018-09-09T06:54:51.472Z,16.23
2018-09-09T06:57:20.786Z,16.33
2018-09-09T06:59:49.506Z,16.20
2018-09-09T07:02:18.338Z,15.57
2018-09-09T07:04:47.586Z,15.80
2018-09-09T07:07:16.542Z,16.47
2018-09-09T07:09:45.217Z,16.90
2018-09-09T07:12:14.695Z,15.33
2018-09-09T07:14:43.418Z,15.90
2018-09-09T07:17:12.192Z,16.90
2018-09-09T07:19:40.937Z,16.97
2018-09-09T07:22:09.689Z,17.20
2018-09-09T07:24:38.305Z,16.70
2018-09-09T07:27:07.317Z,17.30
2018-09-09T07:29:36.305Z,16.67
2018-09-09T07:32:05.973Z,17.10
2018-09-09T07:34:34.707Z,17.93
2018-09-09T07:37:03.446Z,18.20
2018-09-09T07:39:32.773Z,18.87
2018-09-09T07:42:01.419Z,18.23
2018-09-09T07:44:30.162Z,18.37
2018-09-09T07:46:58.917Z,17.90
2018-09-09T07:49:29.154Z,19.07
2018-09-09T07:51:58.137Z,16.87
2018-09-09T07:54:26.890Z,18.90
2018-09-09T07:56:56.633Z,18.23
2018-09-09T07:59:25.595Z,17.63
2018-09-09T08:01:54.308Z,18.07
2018-09-09T08:04:23.983Z,17.97
2018-09-09T08:06:52.681Z,17.90
2018-09-09T08:09:21.361Z,18.40
2018-09-09T08:11:50.074Z,18.13
2018-09-09T08:14:18.779Z,17.83
2018-09-09T08:16:47.732Z,16.90
2018-09-09T08:19:16.354Z,18.17
2018-09-09T08:21:45.054Z,16.87
2018-09-09T08:27:47.957Z,17.17
2018-09-09T08:30:17.313Z,16.23
2018-09-09T08:32:46.002Z,15.17
2018-09-09T08:35:14.675Z,14.83
2018-09-09T08:37:43.390Z,14.60
2018-09-09T08:40:13.115Z,14.27
2018-09-09T08:42:41.789Z,13.30
2018-09-09T08:45:10.619Z,14.70
2018-09-09T08:47:39.378Z,14.23
2018-09-09T08:50:08.069Z,13.63
2018-09-09T08:52:36.758Z,12.37
2018-09-09T08:55:05.540Z,11.93
2018-09-09T08:57:35.334Z,12.13
2018-09-09T09:00:04.105Z,10.97
2018-09-09T09:02:34.598Z,10.90
2018-09-09T09:05:03.270Z,11.20
2018-09-09T09:07:32.519Z,10.70
2018-09-09T09:10:01.846Z,9.50
2018-09-09T09:12:30.562Z,9.43
2018-09-09T09:14:59.193Z,9.13
2018-09-09T09:17:28.277Z,8.70
2018-09-09T09:19:58.438Z,8.63
2018-09-09T09:22:27.121Z,8.57
2018-09-09T09:24:55.890Z,8.10
2018-09-09T09:27:24.885Z,7.67
2018-09-09T09:29:58.794Z,7.80
2018-09-09T09:32:27.561Z,7.72
2018-09-09T09:34:57.081Z,8.03
2018-09-09T09:37:27.183Z,7.80
2018-09-09T09:39:56.267Z,7.23
2018-09-09T09:42:25.521Z,7.23
2018-09-09T09:44:54.393Z,6.97
2018-09-09T09:47:23.165Z,5.73
2018-09-09T09:49:51.996Z,5.53
2018-09-09T09:52:21.608Z,6.00
2018-09-09T09:54:50.589Z,6.57
2018-09-09T09:57:19.404Z,6.67
2018-09-09T09:59:48.690Z,6.80
2018-09-09T10:02:17.613Z,6.30
2018-09-09T10:04:46.298Z,5.93
2018-09-09T10:07:14.957Z,6.23
2018-09-09T10:09:43.657Z,6.23
2018-09-09T10:12:12.261Z,5.93
2018-09-09T10:14:42.917Z,5.77
2018-09-09T10:17:11.659Z,6.57
2018-09-09T10:19:40.634Z,6.10
2018-09-09T10:22:09.376Z,4.90
2018-09-09T10:24:38.161Z,4.87
2018-09-09T10:27:07.622Z,4.60
2018-09-09T10:29:37.184Z,4.50
2018-09-09T10:32:07.311Z,5.17
2018-09-09T10:34:36.106Z,4.93
2018-09-09T10:37:04.817Z,4.97
2018-09-09T10:39:33.602Z,4.90
2018-09-09T10:42:02.502Z,4.70
2018-09-09T10:44:31.250Z,4.73
2018-09-09T10:46:59.925Z,5.30
2018-09-09T10:49:28.752Z,5.40
2018-09-09T10:51:57.373Z,5.30
2018-09-09T10:54:26.174Z,5.10
2018-09-09T10:56:54.904Z,5.10
2018-09-09T10:59:23.661Z,5.60
2018-09-09T11:01:52.313Z,5.10
2018-09-09T11:04:20.994Z,5.73
2018-09-09T11:06:49.796Z,5.13
2018-09-09T11:09:18.459Z,5.17
2018-09-09T11:11:47.070Z,4.70
2018-09-09T11:14:15.801Z,4.90
2018-09-09T11:16:44.618Z,4.40
2018-09-09T11:19:13.461Z,4.27
2018-09-09T11:21:43.621Z,4.30
2018-09-09T11:24:12.440Z,4.30
2018-09-09T11:26:41.122Z,4.20
2018-09-09T11:29:09.722Z,4.17
2018-09-09T11:31:38.378Z,4.20
2018-09-09T11:34:07.099Z,3.90
2018-09-09T11:36:35.923Z,3.80
2018-09-09T11:39:06.170Z,3.93
2018-09-09T11:41:35.151Z,4.00
2018-09-09T11:44:03.961Z,3.87
2018-09-09T11:46:33.217Z,3.53
2018-09-09T11:49:02.222Z,3.83
2018-09-09T11:51:31.197Z,3.70
2018-09-09T11:54:01.265Z,3.00
2018-09-09T11:56:29.934Z,3.55
2018-09-09T11:58:59.501Z,2.80
2018-09-09T12:01:29.017Z,3.00
2018-09-09T12:03:57.732Z,3.20
2018-09-09T12:06:26.357Z,3.62
2018-09-09T12:08:55.015Z,3.77
2018-09-09T12:11:24.041Z,3.47
2018-09-09T12:13:52.804Z,2.70
2018-09-09T12:16:21.567Z,3.20
2018-09-09T12:18:51.458Z,2.90
2018-09-09T12:21:20.205Z,2.97
2018-09-09T12:23:48.828Z,3.20
2018-09-09T12:26:17.905Z,3.13
2018-09-09T12:28:47.917Z,2.90
2018-09-09T12:31:16.736Z,2.80
2018-09-09T12:33:45.534Z,3.30
2018-09-09T12:36:15.358Z,3.33
2018-09-09T12:38:44.055Z,3.10
2018-09-09T12:41:12.921Z,3.17
2018-09-09T12:43:46.869Z,3.20
2018-09-09T12:46:20.677Z,2.93
2018-09-09T12:48:54.816Z,3.10
2018-09-09T12:51:23.516Z,3.05
2018-09-09T12:53:52.344Z,3.40
2018-09-09T12:56:21.010Z,3.30
2018-09-09T12:58:50.626Z,3.40
2018-09-09T13:01:19.318Z,3.50
2018-09-09T13:03:48.939Z,3.00
2018-09-09T13:06:17.652Z,3.70
2018-09-09T13:08:46.405Z,3.50
2018-09-09T13:11:15.002Z,3.52
2018-09-09T13:13:43.802Z,3.57
2018-09-09T13:16:12.474Z,3.70
2018-09-09T13:18:41.157Z,3.43
2018-09-09T13:21:10.077Z,3.60
2018-09-09T13:23:38.698Z,3.67
2018-09-09T13:26:07.372Z,3.50
2018-09-09T13:28:35.945Z,3.90
2018-09-09T13:31:04.537Z,3.70
2018-09-09T13:33:33.847Z,3.70
2018-09-09T13:36:02.424Z,3.67
2018-09-09T13:38:31.751Z,3.50
2018-09-09T13:41:00.491Z,3.87
2018-09-09T13:43:29.330Z,3.60
2018-09-09T13:45:57.983Z,3.25
2018-09-09T13:48:26.724Z,3.20
2018-09-09T13:50:55.490Z,3.20
2018-09-09T13:53:24.161Z,3.20
2018-09-09T13:55:52.990Z,3.25
2018-09-09T13:58:22.025Z,3.50
2018-09-09T14:00:51.294Z,3.10
2018-09-09T14:03:20.101Z,3.17
2018-09-09T14:05:48.738Z,3.05
2018-09-09T14:08:17.556Z,3.20
2018-09-09T14:10:46.243Z,2.87
2018-09-09T14:13:14.990Z,3.75
2018-09-09T14:15:43.724Z,3.17
2018-09-09T14:18:12.583Z,3.15
2018-09-09T14:20:41.400Z,3.20
2018-09-09T14:23:10.225Z,3.60
2018-09-09T14:25:38.905Z,2.87
2018-09-09T14:28:07.569Z,3.20
2018-09-09T14:30:36.686Z,2.90
2018-09-09T14:33:05.324Z,3.02
2018-09-09T14:35:34.873Z,3.10
2018-09-09T14:38:03.574Z,3.10
2018-09-09T14:40:32.281Z,3.27
2018-09-09T14:43:00.928Z,3.20
2018-09-09T14:45:29.853Z,3.22
2018-09-09T14:47:58.521Z,3.50
2018-09-09T14:50:27.518Z,3.17
2018-09-09T14:52:56.172Z,3.08
2018-09-09T14:55:24.810Z,3.08
2018-09-09T14:57:53.537Z,3.10
2018-09-09T15:00:22.338Z,3.17
2018-09-09T15:02:51.093Z,3.50
2018-09-09T15:05:19.734Z,3.50
2018-09-09T15:07:50.034Z,3.22
2018-09-09T15:10:18.785Z,3.30
2018-09-09T15:12:50.448Z,2.98
2018-09-09T15:15:19.138Z,3.27
2018-09-09T15:17:47.850Z,3.15
2018-09-09T15:20:16.519Z,3.50
2018-09-09T15:22:45.190Z,3.58
2018-09-09T15:25:13.897Z,3.00
2018-09-09T15:27:42.511Z,3.22
2018-09-09T15:30:11.126Z,3.50
2018-09-09T15:32:39.874Z,3.30
2018-09-09T15:35:08.557Z,3.25
2018-09-09T15:37:37.230Z,3.27
2018-09-09T15:40:05.969Z,3.27
2018-09-09T15:42:34.620Z,4.10
2018-09-09T15:45:03.330Z,6.10
2018-09-09T15:47:33.060Z,4.20
2018-09-09T15:50:01.744Z,3.60
2018-09-09T15:52:30.478Z,3.30
2018-09-09T15:54:59.236Z,4.30
2018-09-09T15:57:28.237Z,3.37
2018-09-09T15:59:56.919Z,3.07
2018-09-09T16:02:25.679Z,3.90
2018-09-09T16:04:54.361Z,4.00
2018-09-09T16:07:23.218Z,3.70
2018-09-09T16:09:51.799Z,3.30
2018-09-09T16:12:20.555Z,4.23
2018-09-09T16:14:49.459Z,3.50
2018-09-09T16:17:18.198Z,3.93
2018-09-09T16:19:46.832Z,4.17
2018-09-09T16:22:15.445Z,4.17
2018-09-09T16:24:44.322Z,3.93
2018-09-09T16:27:13.079Z,4.37
2018-09-09T16:29:41.782Z,5.00
2018-09-09T16:32:10.461Z,5.00
2018-09-09T16:34:39.098Z,4.80
2018-09-09T16:37:07.850Z,4.40
2018-09-09T16:39:36.557Z,4.00
2018-09-09T16:42:05.233Z,4.70
2018-09-09T16:44:33.785Z,4.63
2018-09-09T16:47:02.437Z,5.57
2018-09-09T16:49:31.106Z,4.80
2018-09-09T16:51:59.798Z,4.23
2018-09-09T16:54:28.621Z,4.00
2018-09-09T16:56:57.606Z,4.20
2018-09-09T16:59:26.309Z,5.20
2018-09-09T17:01:55.309Z,5.57
2018-09-09T17:04:25.101Z,4.30
2018-09-09T17:06:53.869Z,3.20
2018-09-09T17:09:22.491Z,3.40
2018-09-09T17:11:51.148Z,3.80
2018-09-09T17:14:19.782Z,4.03
2018-09-09T17:16:48.675Z,4.00
2018-09-09T17:19:17.365Z,3.73
2018-09-09T17:21:47.258Z,3.70
2018-09-09T17:24:17.358Z,3.47
2018-09-09T17:26:46.077Z,3.53
2018-09-09T17:29:14.955Z,4.70
2018-09-09T17:31:43.811Z,4.30
2018-09-09T17:34:12.547Z,3.73
2018-09-09T17:36:44.013Z,4.03
2018-09-09T17:39:12.685Z,3.70
2018-09-09T17:41:42.447Z,3.80
2018-09-09T17:44:12.065Z,3.90
2018-09-09T17:46:42.801Z,3.97
2018-09-09T17:49:13.743Z,4.20
2018-09-09T17:51:43.058Z,3.97
2018-09-09T17:54:13.531Z,3.67
2018-09-09T17:56:43.903Z,4.13
2018-09-09T17:59:13.113Z,3.97
2018-09-09T18:01:42.427Z,4.03
2018-09-09T18:04:11.071Z,3.87
2018-09-09T18:06:40.392Z,3.53
2018-09-09T18:09:09.873Z,3.87
2018-09-09T18:11:38.848Z,3.63
2018-09-09T18:14:07.582Z,4.27
2018-09-09T18:16:36.161Z,4.00
2018-09-09T18:19:05.765Z,4.10
2018-09-09T18:21:34.363Z,4.13
2018-09-09T18:24:03.052Z,4.00
2018-09-09T18:26:31.741Z,4.57
2018-09-09T18:29:00.430Z,3.90
2018-09-09T18:31:29.401Z,3.50
2018-09-09T18:33:58.573Z,4.00
2018-09-09T18:36:28.633Z,4.27
2018-09-09T18:38:58.212Z,4.80
2018-09-09T18:41:26.839Z,3.83
2018-09-09T18:43:55.733Z,4.07
2018-09-09T18:46:24.338Z,4.07
2018-09-09T18:48:52.972Z,4.37
2018-09-09T18:51:21.685Z,4.03
2018-09-09T18:53:50.320Z,4.60
2018-09-09T18:56:18.942Z,5.00
2018-09-09T18:58:47.889Z,5.63
2018-09-09T19:01:18.496Z,6.40
2018-09-09T19:03:48.146Z,7.40
2018-09-09T19:06:16.797Z,7.20
2018-09-09T19:08:45.546Z,7.00
2018-09-09T19:11:14.827Z,7.03
2018-09-09T19:13:43.529Z,7.27
2018-09-09T19:16:12.891Z,7.37
2018-09-09T19:18:42.242Z,7.27
2018-09-09T19:21:12.435Z,7.60
2018-09-09T19:23:41.277Z,7.23
2018-09-09T19:26:10.256Z,7.40
2018-09-09T19:28:39.974Z,6.60
2018-09-09T19:31:08.822Z,6.60
2018-09-09T19:33:37.715Z,6.80
2018-09-09T19:36:06.430Z,6.20
2018-09-09T19:38:35.102Z,6.33
2018-09-09T19:41:04.584Z,6.33
2018-09-09T19:43:33.435Z,6.40
2018-09-09T19:46:02.298Z,6.37
2018-09-09T19:48:30.913Z,6.30
2018-09-09T19:51:02.130Z,6.60
2018-09-09T19:53:31.842Z,6.60
2018-09-09T19:56:01.282Z,6.47
2018-09-09T19:58:30.885Z,6.77
2018-09-09T20:00:59.751Z,6.47
2018-09-09T20:03:30.310Z,6.67
2018-09-09T20:06:00.715Z,6.50
2018-09-09T20:08:29.425Z,6.30
2018-09-09T20:10:58.853Z,6.10
2018-09-09T20:13:27.474Z,6.20
2018-09-09T20:15:57.376Z,6.27
2018-09-09T20:18:26.013Z,5.80
2018-09-09T20:20:54.719Z,6.20
2018-09-09T20:23:23.549Z,6.13
2018-09-09T20:25:52.365Z,6.00
2018-09-09T20:28:21.104Z,5.90
2018-09-09T20:30:49.749Z,6.37
2018-09-09T20:33:18.418Z,6.00
2018-09-09T20:35:47.914Z,6.20
2018-09-09T20:38:18.330Z,5.93
2018-09-09T20:40:47.040Z,6.13
2018-09-09T20:43:16.593Z,6.13
2018-09-09T20:45:45.754Z,6.50
2018-09-09T20:48:14.562Z,6.40
2018-09-09T20:50:44.067Z,6.33
2018-09-09T20:53:12.708Z,6.10
2018-09-09T20:55:41.403Z,6.70
2018-09-09T20:58:10.050Z,6.27
2018-09-09T21:00:40.013Z,6.67
2018-09-09T21:03:08.811Z,5.97
2018-09-09T21:05:38.302Z,6.17
2018-09-09T21:08:07.233Z,6.47
2018-09-09T21:10:36.012Z,6.47
2018-09-09T21:13:04.689Z,6.23
2018-09-09T21:15:33.478Z,6.40
2018-09-09T21:18:02.198Z,6.50
2018-09-09T21:20:30.941Z,6.93
2018-09-09T21:22:59.728Z,7.10
2018-09-09T21:25:28.485Z,6.47
2018-09-09T21:27:57.398Z,6.87
2018-09-09T21:30:26.082Z,7.03
2018-09-09T21:32:54.722Z,6.53
2018-09-09T21:35:23.369Z,6.37
2018-09-09T21:37:52.354Z,5.87
2018-09-09T21:40:21.093Z,5.80
2018-09-09T21:42:50.166Z,6.10
2018-09-09T21:45:19.818Z,5.90
2018-09-09T21:47:48.485Z,6.30
2018-09-09T21:50:17.239Z,6.07
2018-09-09T21:52:46.774Z,6.50
2018-09-09T21:55:15.591Z,6.83
2018-09-09T21:57:44.283Z,6.10
2018-09-09T22:00:13.886Z,6.27
2018-09-09T22:02:43.206Z,6.60
2018-09-09T22:05:11.814Z,6.47
2018-09-09T22:07:40.801Z,5.93
2018-09-09T22:10:10.541Z,6.07
2018-09-09T22:12:39.267Z,6.50
2018-09-09T22:15:08.589Z,6.50
2018-09-09T22:17:37.216Z,6.73
2018-09-09T22:20:05.921Z,6.10
2018-09-09T22:22:34.640Z,6.30
2018-09-09T22:25:03.495Z,6.63
2018-09-09T22:27:32.437Z,6.27
2018-09-09T22:30:01.740Z,6.37
2018-09-09T22:32:30.414Z,6.80
2018-09-09T22:34:59.261Z,6.83
2018-09-09T22:37:27.917Z,7.60
2018-09-09T22:39:56.621Z,7.40
2018-09-09T22:42:25.229Z,7.90
2018-09-09T22:44:53.885Z,8.23
2018-09-09T22:47:22.714Z,10.50
2018-09-09T22:49:51.497Z,11.93
2018-09-09T22:52:20.609Z,12.37
2018-09-09T22:54:49.405Z,12.80
2018-09-09T22:57:18.068Z,13.27
2018-09-09T22:59:46.742Z,11.73
2018-09-09T23:02:15.572Z,10.50
2018-09-09T23:04:44.351Z,11.47
2018-09-09T23:07:13.047Z,11.00
2018-09-09T23:09:41.850Z,9.70
2018-09-09T23:12:10.437Z,9.87
2018-09-09T23:14:39.162Z,9.80
2018-09-09T23:17:08.585Z,9.17
2018-09-09T23:19:37.317Z,9.77
2018-09-09T23:22:06.095Z,9.17
2018-09-09T23:24:34.790Z,8.90
2018-09-09T23:27:03.473Z,9.60
2018-09-09T23:29:32.165Z,9.77
2018-09-09T23:32:00.929Z,9.10
2018-09-09T23:34:29.780Z,9.37
2018-09-09T23:36:58.474Z,8.67
2018-09-09T23:39:27.057Z,9.90
2018-09-09T23:41:55.825Z,9.70
2018-09-09T23:44:24.618Z,9.47
2018-09-09T23:46:53.878Z,8.63
2018-09-09T23:49:22.608Z,9.03
2018-09-09T23:51:51.310Z,8.87
2018-09-09T23:54:20.050Z,8.87
2018-09-09T23:56:48.774Z,9.13
2018-09-09T23:59:17.515Z,9.17
